Time;durP1;ratioP1;P1;durP2;ratioP2;P2;SDS_P1;SDS_P2;PMS_P1;PMS_P2;Temp;Humidity;BMP_temperature;BMP_pressure;BME280_temperature;BME280_humidity;BME280_pressure;Samples;Min_cycle;Max_cycle;Signal;HPM_P1;HPM_P2
2023/10/24 00:02:51;;;;;;;3.45;2.22;;;;;;;;;;10255240;28;20042;-63
2023/10/24 00:07:51;;;;;;;2.83;2.35;;;;;;;;;;10254386;28;20098;-62
2023/10/24 00:12:52;;;;;;;4.32;2.50;;;;;;;;;;10264229;28;20040;-63
2023/10/24 00:17:53;;;;;;;5.57;2.42;;;;;;;;;;10279174;28;20027;-63
2023/10/24 00:22:53;;;;;;;7.82;2.40;;;;;;;;;;10282306;28;20037;-65
2023/10/24 00:27:54;;;;;;;3.03;2.63;;;;;;;;;;10282031;28;20489;-63
2023/10/24 00:32:54;;;;;;;2.38;2.00;;;;;;;;;;10281769;28;20383;-63
2023/10/24 00:37:55;;;;;;;3.67;2.20;;;;;;;;;;10284902;28;20782;-64
2023/10/24 00:43:03;;;;;;;2.88;2.40;;;;;;;;;;10291343;28;20034;-64
2023/10/24 00:48:05;;;;;;;2.90;2.50;;;;;;;;;;10293434;28;20038;-65
2023/10/24 00:53:05;;;;;;;3.00;2.20;;;;;;;;;;10271752;28;20050;-63
2023/10/24 00:58:08;;;;;;;4.15;2.28;;;;;;;;;;10293758;28;20027;-61
2023/10/24 01:03:09;;;;;;;2.95;2.13;;;;;;;;;;10290207;28;20046;-61
2023/10/24 01:08:10;;;;;;;4.00;2.58;;;;;;;;;;10293906;28;20038;-60
2023/10/24 01:13:11;;;;;;;1.88;1.77;;;;;;;;;;10289040;28;20035;-64
2023/10/24 01:18:11;;;;;;;2.25;2.00;;;;;;;;;;10275844;28;20034;-65
2023/10/24 01:23:12;;;;;;;2.40;2.20;;;;;;;;;;10289819;28;20034;-65
2023/10/24 01:28:13;;;;;;;3.55;2.10;;;;;;;;;;10291958;28;20062;-64
2023/10/24 01:33:13;;;;;;;5.25;2.50;;;;;;;;;;10276328;28;20466;-64
2023/10/24 01:38:14;;;;;;;2.58;2.03;;;;;;;;;;10291848;28;20430;-65
2023/10/24 01:43:14;;;;;;;2.95;2.20;;;;;;;;;;10263902;28;20045;-64
2023/10/24 01:48:15;;;;;;;3.70;2.00;;;;;;;;;;10290892;28;20444;-64
2023/10/24 01:53:16;;;;;;;3.40;2.13;;;;;;;;;;10288436;28;20051;-66
2023/10/24 01:58:16;;;;;;;2.33;1.92;;;;;;;;;;10277699;28;20027;-63
2023/10/24 02:03:17;;;;;;;2.58;1.98;;;;;;;;;;10280032;28;20026;-64
2023/10/24 02:08:17;;;;;;;3.50;2.15;;;;;;;;;;10291016;28;20097;-63
2023/10/24 02:13:18;;;;;;;5.18;2.13;;;;;;;;;;10287575;28;20570;-64
2023/10/24 02:18:18;;;;;;;4.07;2.03;;;;;;;;;;10289157;28;20498;-66
2023/10/24 02:23:19;;;;;;;4.70;2.50;;;;;;;;;;10280983;28;20523;-63
2023/10/24 02:28:20;;;;;;;2.22;1.98;;;;;;;;;;10278532;28;20023;-65
2023/10/24 02:33:20;;;;;;;2.75;2.05;;;;;;;;;;10291178;28;20039;-63
2023/10/24 02:38:21;;;;;;;2.92;1.90;;;;;;;;;;10288208;28;20053;-63
2023/10/24 02:43:22;;;;;;;2.10;1.83;;;;;;;;;;10288661;28;20070;-62
2023/10/24 02:48:22;;;;;;;2.30;1.83;;;;;;;;;;10287764;28;20450;-62
2023/10/24 02:53:23;;;;;;;2.13;1.80;;;;;;;;;;10289082;28;20097;-62
2023/10/24 02:58:24;;;;;;;2.30;2.10;;;;;;;;;;10281040;28;20289;-62
2023/10/24 03:03:24;;;;;;;2.30;1.70;;;;;;;;;;10270193;28;20282;-65
2023/10/24 03:08:25;;;;;;;2.00;1.70;;;;;;;;;;10287451;28;20376;-61
2023/10/24 03:13:25;;;;;;;2.55;1.60;;;;;;;;;;10288729;28;20433;-62
2023/10/24 03:18:26;;;;;;;2.00;1.80;;;;;;;;;;10282500;28;20098;-61
2023/10/24 03:23:26;;;;;;;3.38;1.65;;;;;;;;;;10286502;28;20042;-61
2023/10/24 03:28:27;;;;;;;2.25;1.77;;;;;;;;;;10281443;28;20089;-64
2023/10/24 03:33:28;;;;;;;2.17;1.73;;;;;;;;;;10285267;28;20035;-61
2023/10/24 03:38:30;;;;;;;6.30;1.98;;;;;;;;;;10285691;28;20034;-62
2023/10/24 03:43:30;;;;;;;1.77;1.60;;;;;;;;;;10286927;28;20537;-62
2023/10/24 03:48:31;;;;;;;2.28;1.80;;;;;;;;;;10285098;28;20856;-62
2023/10/24 03:53:32;;;;;;;1.80;1.67;;;;;;;;;;10286869;28;20058;-62
2023/10/24 03:58:32;;;;;;;2.67;1.85;;;;;;;;;;10283122;28;20082;-63
2023/10/24 04:03:34;;;;;;;2.67;1.77;;;;;;;;;;10287551;28;20027;-64
2023/10/24 04:08:35;;;;;;;2.75;1.70;;;;;;;;;;10276337;28;20085;-63
2023/10/24 04:13:35;;;;;;;2.10;1.65;;;;;;;;;;10283952;28;20101;-63
2023/10/24 04:18:36;;;;;;;1.63;1.50;;;;;;;;;;10288158;28;20030;-64
2023/10/24 04:23:37;;;;;;;2.70;1.70;;;;;;;;;;10289028;28;20023;-63
2023/10/24 04:28:41;;;;;;;1.50;1.40;;;;;;;;;;10286685;28;20387;-64
2023/10/24 04:33:41;;;;;;;1.67;1.58;;;;;;;;;;10279512;28;20142;-64
2023/10/24 04:38:42;;;;;;;6.30;1.85;;;;;;;;;;10286540;28;20575;-64
2023/10/24 04:43:43;;;;;;;2.95;1.85;;;;;;;;;;10279508;28;20034;-65
2023/10/24 04:48:43;;;;;;;3.17;1.75;;;;;;;;;;10282016;28;20038;-63
2023/10/24 04:53:44;;;;;;;2.75;1.80;;;;;;;;;;10284523;28;20062;-63
2023/10/24 04:58:44;;;;;;;3.83;1.67;;;;;;;;;;10280446;28;20031;-64
2023/10/24 05:03:45;;;;;;;2.25;1.52;;;;;;;;;;10287046;28;20344;-64
2023/10/24 05:08:46;;;;;;;2.13;1.67;;;;;;;;;;10285130;28;20019;-64
2023/10/24 05:13:46;;;;;;;1.67;1.58;;;;;;;;;;10279709;28;20035;-65
2023/10/24 05:18:47;;;;;;;1.90;1.60;;;;;;;;;;10284247;28;20459;-63
2023/10/24 05:23:48;;;;;;;2.17;1.65;;;;;;;;;;10274131;28;20372;-64
2023/10/24 05:28:48;;;;;;;10.15;1.65;;;;;;;;;;10289921;28;20106;-64
2023/10/24 05:33:50;;;;;;;3.33;1.75;;;;;;;;;;10276830;28;20478;-64
2023/10/24 05:38:50;;;;;;;7.93;1.63;;;;;;;;;;10307215;28;20030;-70
2023/10/24 05:43:51;;;;;;;1.52;1.42;;;;;;;;;;10291906;28;20138;-63
2023/10/24 05:48:53;;;;;;;7.25;1.70;;;;;;;;;;10289561;28;20026;-63
2023/10/24 05:53:54;;;;;;;3.78;1.60;;;;;;;;;;10285909;28;20135;-62
2023/10/24 05:58:55;;;;;;;2.90;1.50;;;;;;;;;;10280435;28;20644;-63
2023/10/24 06:03:55;;;;;;;9.95;1.70;;;;;;;;;;10291516;28;20039;-63
2023/10/24 06:08:56;;;;;;;15.10;2.28;;;;;;;;;;10283492;28;20038;-63
2023/10/24 06:13:57;;;;;;;3.92;1.75;;;;;;;;;;10278785;28;20063;-63
2023/10/24 06:18:57;;;;;;;12.43;2.30;;;;;;;;;;10278417;28;20035;-63
2023/10/24 06:23:58;;;;;;;8.05;2.13;;;;;;;;;;10287086;28;20035;-63
2023/10/24 06:28:58;;;;;;;10.63;2.13;;;;;;;;;;10288782;28;20041;-63
2023/10/24 06:33:59;;;;;;;10.77;1.85;;;;;;;;;;10283943;28;20038;-63
2023/10/24 06:39:03;;;;;;;7.85;2.05;;;;;;;;;;10286880;28;20039;-63
2023/10/24 06:44:04;;;;;;;10.52;2.03;;;;;;;;;;10276089;28;20559;-62
2023/10/24 06:49:05;;;;;;;12.77;2.20;;;;;;;;;;10275651;28;20114;-62
2023/10/24 06:54:05;;;;;;;9.68;2.20;;;;;;;;;;10277192;28;20442;-63
2023/10/24 06:59:06;;;;;;;6.05;2.35;;;;;;;;;;10286948;28;20027;-62
2023/10/24 07:04:07;;;;;;;10.82;2.50;;;;;;;;;;10288312;28;20030;-63
2023/10/24 07:09:07;;;;;;;14.38;2.65;;;;;;;;;;10286035;28;20505;-63
2023/10/24 07:14:08;;;;;;;6.38;1.90;;;;;;;;;;10267663;28;20031;-64
2023/10/24 07:19:09;;;;;;;11.45;2.22;;;;;;;;;;10281576;28;20034;-61
2023/10/24 07:24:10;;;;;;;12.05;2.30;;;;;;;;;;10282245;28;20046;-63
2023/10/24 07:29:10;;;;;;;4.55;2.17;;;;;;;;;;10283801;28;20052;-61
2023/10/24 07:34:11;;;;;;;5.65;1.85;;;;;;;;;;10285304;28;20485;-63
2023/10/24 07:39:14;;;;;;;7.10;2.15;;;;;;;;;;10281274;28;20067;-60
2023/10/24 07:44:14;;;;;;;6.53;2.00;;;;;;;;;;10285272;28;20027;-61
2023/10/24 07:49:15;;;;;;;8.50;1.98;;;;;;;;;;10281683;28;20023;-63
2023/10/24 07:54:16;;;;;;;11.10;2.03;;;;;;;;;;10290080;28;20607;-61
2023/10/24 07:59:16;;;;;;;4.97;1.77;;;;;;;;;;10280355;28;20106;-61
2023/10/24 08:04:17;;;;;;;4.90;1.85;;;;;;;;;;10283507;28;20027;-61
2023/10/24 08:09:17;;;;;;;2.38;1.63;;;;;;;;;;10279036;28;20397;-65
2023/10/24 08:14:18;;;;;;;8.38;2.50;;;;;;;;;;10279437;28;20487;-63
2023/10/24 08:19:19;;;;;;;5.18;1.73;;;;;;;;;;10276478;28;20035;-62
2023/10/24 08:24:21;;;;;;;4.45;2.03;;;;;;;;;;10282319;28;20035;-63
2023/10/24 08:29:21;;;;;;;3.58;1.77;;;;;;;;;;10285131;28;20034;-62
2023/10/24 08:34:22;;;;;;;4.13;1.48;;;;;;;;;;10278839;28;20047;-65
2023/10/24 08:39:23;;;;;;;3.67;1.90;;;;;;;;;;10277360;28;20027;-65
2023/10/24 08:44:26;;;;;;;7.55;2.05;;;;;;;;;;10281386;28;20510;-66
2023/10/24 08:49:28;;;;;;;6.43;1.63;;;;;;;;;;10283106;28;20065;-67
2023/10/24 08:54:30;;;;;;;4.00;1.73;;;;;;;;;;10282881;28;20058;-64
2023/10/24 08:59:37;;;;;;;3.67;1.83;;;;;;;;;;10277891;28;20110;-66
2023/10/24 09:04:39;;;;;;;9.07;1.92;;;;;;;;;;10291934;28;20035;-69
2023/10/24 09:09:40;;;;;;;7.15;1.80;;;;;;;;;;10276476;28;20030;-67
2023/10/24 09:14:45;;;;;;;4.20;1.52;;;;;;;;;;10289169;28;20595;-65
2023/10/24 09:19:46;;;;;;;9.07;2.13;;;;;;;;;;10292512;28;20089;-67
2023/10/24 09:24:49;;;;;;;3.42;1.45;;;;;;;;;;10293392;28;20081;-68
2023/10/24 09:29:51;;;;;;;3.38;1.92;;;;;;;;;;10292263;28;20045;-65
2023/10/24 09:34:52;;;;;;;5.75;1.52;;;;;;;;;;10292522;28;20093;-64
2023/10/24 09:39:56;;;;;;;4.88;2.08;;;;;;;;;;10288196;28;20100;-63
2023/10/24 09:45:02;;;;;;;5.03;1.48;;;;;;;;;;10291044;28;20488;-62
2023/10/24 09:50:04;;;;;;;3.58;1.48;;;;;;;;;;10290521;28;20062;-64
2023/10/24 09:55:05;;;;;;;2.78;1.65;;;;;;;;;;10284017;28;20038;-64
2023/10/24 10:00:11;;;;;;;3.65;1.70;;;;;;;;;;10292680;28;20045;-63
2023/10/24 10:05:14;;;;;;;10.05;2.05;;;;;;;;;;10262742;28;20101;-64
2023/10/24 10:10:16;;;;;;;4.47;1.60;;;;;;;;;;10276213;28;20031;-63
2023/10/24 10:15:58;;;;;;;2.45;1.63;;;;;;;;;;10296511;28;20061;-65
2023/10/24 10:21:47;;;;;;;4.93;1.70;;;;;;;;;;10277496;28;20391;-62
2023/10/24 10:27:20;;;;;;;6.55;1.70;;;;;;;;;;10255490;28;20564;-62
2023/10/24 10:32:33;;;;;;;4.30;1.50;;;;;;;;;;10242043;28;20039;-62
2023/10/24 10:37:34;;;;;;;6.20;1.45;;;;;;;;;;10256812;28;20023;-61
2023/10/24 10:42:50;;;;;;;3.95;1.70;;;;;;;;;;10261328;28;20051;-61
2023/10/24 10:48:17;;;;;;;7.00;1.55;;;;;;;;;;10265437;28;20089;-65
2023/10/24 10:53:40;;;;;;;8.65;1.85;;;;;;;;;;10263227;28;20602;-61
2023/10/24 10:59:12;;;;;;;5.10;1.55;;;;;;;;;;10286309;28;20083;-64
2023/10/24 11:04:17;;;;;;;6.85;2.00;;;;;;;;;;10289776;28;20046;-62
2023/10/24 11:09:22;;;;;;;3.22;1.70;;;;;;;;;;10285408;28;20038;-64
2023/10/24 11:14:23;;;;;;;3.65;2.17;;;;;;;;;;10284133;28;20023;-62
2023/10/24 11:19:26;;;;;;;2.92;1.40;;;;;;;;;;10281310;28;20031;-61
2023/10/24 11:24:29;;;;;;;3.40;1.50;;;;;;;;;;10276062;28;20019;-64
2023/10/24 11:29:29;;;;;;;7.45;1.90;;;;;;;;;;10272205;28;20039;-61
2023/10/24 11:34:30;;;;;;;5.43;1.70;;;;;;;;;;10272554;28;20117;-62
2023/10/24 11:39:31;;;;;;;5.07;1.75;;;;;;;;;;10266871;28;20387;-64
2023/10/24 11:44:31;;;;;;;5.25;1.80;;;;;;;;;;10281716;28;20035;-62
2023/10/24 11:49:32;;;;;;;5.85;1.85;;;;;;;;;;10274608;28;20039;-63
2023/10/24 11:54:33;;;;;;;3.05;1.50;;;;;;;;;;10244821;28;20047;-63
2023/10/24 11:59:35;;;;;;;3.90;1.60;;;;;;;;;;10259351;28;20057;-64
2023/10/24 12:04:36;;;;;;;3.20;1.52;;;;;;;;;;10278411;28;20455;-65
2023/10/24 12:09:37;;;;;;;9.35;2.10;;;;;;;;;;10265100;28;20042;-65
2023/10/24 12:14:42;;;;;;;4.30;2.22;;;;;;;;;;10277886;28;20035;-65
2023/10/24 12:19:42;;;;;;;5.53;1.50;;;;;;;;;;10273965;28;20039;-64
2023/10/24 12:24:43;;;;;;;2.65;1.50;;;;;;;;;;10273355;28;20483;-65
2023/10/24 12:29:43;;;;;;;5.55;1.70;;;;;;;;;;10265950;28;20038;-64
2023/10/24 12:34:44;;;;;;;7.70;1.95;;;;;;;;;;10285526;28;20062;-64
2023/10/24 12:39:46;;;;;;;6.03;1.60;;;;;;;;;;10292379;28;20031;-65
2023/10/24 12:44:46;;;;;;;3.72;1.75;;;;;;;;;;10279315;28;20027;-64
2023/10/24 12:49:47;;;;;;;4.82;1.73;;;;;;;;;;10279204;28;20483;-65
2023/10/24 12:54:49;;;;;;;3.67;1.63;;;;;;;;;;10283080;28;20961;-64
2023/10/24 12:59:52;;;;;;;3.47;1.50;;;;;;;;;;10277189;28;20168;-64
2023/10/24 13:04:53;;;;;;;5.85;1.60;;;;;;;;;;10270392;28;20031;-65
2023/10/24 13:09:53;;;;;;;2.10;1.42;;;;;;;;;;10273007;28;20034;-62
2023/10/24 13:14:54;;;;;;;2.83;1.65;;;;;;;;;;10288667;28;20042;-63
2023/10/24 13:19:55;;;;;;;3.83;1.73;;;;;;;;;;10289490;28;20415;-62
2023/10/24 13:24:56;;;;;;;4.50;1.45;;;;;;;;;;10289554;28;20394;-61
2023/10/24 13:29:57;;;;;;;8.10;1.70;;;;;;;;;;10289315;28;20027;-62
2023/10/24 13:34:58;;;;;;;7.40;1.70;;;;;;;;;;10289659;28;20026;-63
2023/10/24 13:39:58;;;;;;;4.70;1.60;;;;;;;;;;10287803;28;20099;-62
2023/10/24 13:44:59;;;;;;;4.28;1.60;;;;;;;;;;10291415;28;20031;-62
2023/10/24 13:49:59;;;;;;;4.60;1.73;;;;;;;;;;10279925;28;20082;-61
2023/10/24 13:55:00;;;;;;;2.50;1.35;;;;;;;;;;10284079;28;20031;-60
2023/10/24 14:00:00;;;;;;;3.80;1.55;;;;;;;;;;10283431;28;20038;-61
2023/10/24 14:05:03;;;;;;;3.10;1.40;;;;;;;;;;10275256;28;20058;-61
2023/10/24 14:10:04;;;;;;;2.38;1.40;;;;;;;;;;10261659;28;20062;-62
2023/10/24 14:15:05;;;;;;;4.47;1.50;;;;;;;;;;10260145;28;20035;-61
2023/10/24 14:20:07;;;;;;;4.38;1.50;;;;;;;;;;10253858;28;20035;-62
2023/10/24 14:25:08;;;;;;;5.05;1.65;;;;;;;;;;10259989;28;20035;-62
2023/10/24 14:30:10;;;;;;;5.05;1.50;;;;;;;;;;10267275;28;20035;-62
2023/10/24 14:35:11;;;;;;;8.82;1.50;;;;;;;;;;10260651;28;20121;-61
2023/10/24 14:40:12;;;;;;;2.85;1.75;;;;;;;;;;10263925;28;20043;-62
2023/10/24 14:45:12;;;;;;;3.95;1.50;;;;;;;;;;10259764;28;20054;-62
2023/10/24 14:50:13;;;;;;;3.63;1.27;;;;;;;;;;10264408;28;20053;-60
2023/10/24 14:55:14;;;;;;;5.63;1.30;;;;;;;;;;10265085;28;20595;-61
2023/10/24 15:00:15;;;;;;;4.18;1.70;;;;;;;;;;10261925;28;20074;-60
2023/10/24 15:05:15;;;;;;;5.88;1.67;;;;;;;;;;10263606;28;20046;-60
2023/10/24 15:10:16;;;;;;;4.70;1.70;;;;;;;;;;10262108;28;20530;-62
2023/10/24 15:15:17;;;;;;;2.97;1.50;;;;;;;;;;10257911;28;20042;-61
2023/10/24 15:20:18;;;;;;;4.85;1.70;;;;;;;;;;10266854;28;20038;-60
2023/10/24 15:25:19;;;;;;;7.30;1.50;;;;;;;;;;10264762;28;20037;-59
2023/10/24 15:30:21;;;;;;;4.32;1.92;;;;;;;;;;10279296;28;20509;-58
2023/10/24 15:35:22;;;;;;;5.03;1.60;;;;;;;;;;10285111;28;20074;-59
2023/10/24 15:40:22;;;;;;;5.55;1.30;;;;;;;;;;10269724;28;20039;-58
2023/10/24 15:45:23;;;;;;;4.15;1.40;;;;;;;;;;10258391;28;20039;-59
2023/10/24 15:50:24;;;;;;;5.32;1.40;;;;;;;;;;10265058;28;20054;-59
2023/10/24 15:55:24;;;;;;;3.00;1.48;;;;;;;;;;10258723;28;20077;-60
2023/10/24 16:00:28;;;;;;;1.75;1.40;;;;;;;;;;10260918;28;20049;-59
2023/10/24 16:05:29;;;;;;;4.93;1.45;;;;;;;;;;10270863;28;20153;-60
2023/10/24 16:10:30;;;;;;;2.38;1.50;;;;;;;;;;10261357;28;20027;-64
2023/10/24 16:15:30;;;;;;;2.40;1.30;;;;;;;;;;10266081;28;20042;-64
2023/10/24 16:20:32;;;;;;;3.42;1.52;;;;;;;;;;10278820;28;20471;-59
2023/10/24 16:25:34;;;;;;;2.22;1.42;;;;;;;;;;10282715;28;20038;-65
2023/10/24 16:30:35;;;;;;;4.05;1.67;;;;;;;;;;10275127;28;20118;-58
2023/10/24 16:35:36;;;;;;;1.52;1.20;;;;;;;;;;10272195;28;20039;-59
2023/10/24 16:40:37;;;;;;;9.57;1.70;;;;;;;;;;10258573;28;20121;-62
2023/10/24 16:45:38;;;;;;;6.95;1.50;;;;;;;;;;10256715;28;20031;-64
2023/10/24 16:50:39;;;;;;;6.63;1.35;;;;;;;;;;10255109;28;20101;-61
2023/10/24 16:56:00;;;;;;;6.10;1.90;;;;;;;;;;10239986;28;20038;-61
2023/10/24 17:01:02;;;;;;;3.03;1.48;;;;;;;;;;10212358;28;20395;-54
2023/10/24 17:06:03;;;;;;;3.75;1.45;;;;;;;;;;10219216;28;20527;-58
2023/10/24 17:11:07;;;;;;;1.77;1.52;;;;;;;;;;10214729;28;20052;-59
2023/10/24 17:16:08;;;;;;;3.13;1.58;;;;;;;;;;10215366;28;20058;-58
2023/10/24 17:21:08;;;;;;;4.82;1.60;;;;;;;;;;10224313;28;20129;-58
2023/10/24 17:26:09;;;;;;;2.05;1.38;;;;;;;;;;10220501;28;20044;-59
2023/10/24 17:31:11;;;;;;;2.30;1.27;;;;;;;;;;10233910;28;20495;-59
2023/10/24 17:36:11;;;;;;;3.28;1.50;;;;;;;;;;10253010;28;20078;-59
2023/10/24 17:41:12;;;;;;;4.32;1.85;;;;;;;;;;10274548;28;20118;-60
2023/10/24 17:46:14;;;;;;;5.07;1.60;;;;;;;;;;10278091;28;20567;-55
2023/10/24 17:51:14;;;;;;;5.53;2.00;;;;;;;;;;10289173;28;20042;-58
2023/10/24 17:56:15;;;;;;;3.47;1.75;;;;;;;;;;10288038;28;20470;-57
2023/10/24 18:01:16;;;;;;;5.88;1.63;;;;;;;;;;10289778;28;20494;-59
2023/10/24 18:06:16;;;;;;;3.17;1.55;;;;;;;;;;10280845;28;20077;-58
2023/10/24 18:11:17;;;;;;;2.38;1.48;;;;;;;;;;10292741;28;20039;-58
2023/10/24 18:16:19;;;;;;;4.47;1.70;;;;;;;;;;10295312;28;20035;-64
2023/10/24 18:21:20;;;;;;;6.32;1.98;;;;;;;;;;10310697;28;20085;-58
2023/10/24 18:26:21;;;;;;;2.65;1.73;;;;;;;;;;10286844;28;20035;-59
2023/10/24 18:31:24;;;;;;;2.90;1.63;;;;;;;;;;10274182;28;20031;-59
2023/10/24 18:36:25;;;;;;;4.60;1.90;;;;;;;;;;10281969;28;20027;-58
2023/10/24 18:41:25;;;;;;;3.65;1.75;;;;;;;;;;10281786;28;20038;-58
2023/10/24 18:46:26;;;;;;;4.95;1.73;;;;;;;;;;10281203;28;20110;-59
2023/10/24 18:51:26;;;;;;;2.58;1.80;;;;;;;;;;10279072;28;20039;-58
2023/10/24 18:56:28;;;;;;;2.17;1.80;;;;;;;;;;10275946;28;20113;-58
2023/10/24 19:01:29;;;;;;;4.53;1.73;;;;;;;;;;10284046;28;20439;-59
2023/10/24 19:06:29;;;;;;;3.72;1.60;;;;;;;;;;10283589;28;20034;-58
2023/10/24 19:11:34;;;;;;;4.10;1.80;;;;;;;;;;10297252;28;20460;-58
2023/10/24 19:16:35;;;;;;;5.75;1.77;;;;;;;;;;10282379;28;20033;-64
2023/10/24 19:21:36;;;;;;;4.80;2.22;;;;;;;;;;10272702;28;20031;-58
2023/10/24 19:26:38;;;;;;;6.35;2.33;;;;;;;;;;10271319;28;20431;-58
2023/10/24 19:31:39;;;;;;;4.03;1.80;;;;;;;;;;10261865;28;20034;-69
2023/10/24 19:36:43;;;;;;;5.50;2.20;;;;;;;;;;10268734;28;20035;-58
2023/10/24 19:41:44;;;;;;;2.33;2.00;;;;;;;;;;10284465;28;20647;-60
2023/10/24 19:46:48;;;;;;;7.03;2.42;;;;;;;;;;10279484;28;20116;-57
2023/10/24 19:51:50;;;;;;;6.15;2.70;;;;;;;;;;10255268;28;20138;-54
2023/10/24 19:56:53;;;;;;;4.53;2.20;;;;;;;;;;10272342;28;20035;-57
2023/10/24 20:01:54;;;;;;;4.70;2.33;;;;;;;;;;10277867;28;20035;-57
2023/10/24 20:06:57;;;;;;;4.18;2.10;;;;;;;;;;10284890;28;20031;-58
2023/10/24 20:11:58;;;;;;;2.00;1.80;;;;;;;;;;10268955;28;20062;-56
2023/10/24 20:17:00;;;;;;;3.38;2.40;;;;;;;;;;10283003;28;20027;-63
2023/10/24 20:22:01;;;;;;;5.55;2.25;;;;;;;;;;10283487;28;20453;-58
2023/10/24 20:27:03;;;;;;;6.28;2.53;;;;;;;;;;10289653;28;20089;-57
2023/10/24 20:32:04;;;;;;;4.72;2.17;;;;;;;;;;10270543;28;20081;-71
2023/10/24 20:37:05;;;;;;;7.10;2.55;;;;;;;;;;10282018;28;20446;-57
2023/10/24 20:42:05;;;;;;;7.53;2.30;;;;;;;;;;10284295;28;20031;-56
2023/10/24 20:47:06;;;;;;;5.32;2.30;;;;;;;;;;10279287;28;20025;-57
2023/10/24 20:52:07;;;;;;;3.42;2.00;;;;;;;;;;10282538;28;20507;-58
2023/10/24 20:57:07;;;;;;;4.72;2.20;;;;;;;;;;10284315;28;20470;-57
2023/10/24 21:02:08;;;;;;;4.38;2.80;;;;;;;;;;10287290;28;20026;-65
2023/10/24 21:07:09;;;;;;;13.75;2.85;;;;;;;;;;10293663;28;20391;-65
2023/10/24 21:12:09;;;;;;;6.00;2.95;;;;;;;;;;10287815;28;20036;-63
2023/10/24 21:17:10;;;;;;;7.53;3.00;;;;;;;;;;10293876;28;20045;-66
2023/10/24 21:22:10;;;;;;;7.30;2.97;;;;;;;;;;10289364;28;20039;-64
2023/10/24 21:27:11;;;;;;;9.98;3.33;;;;;;;;;;10267589;28;20562;-64
2023/10/24 21:32:12;;;;;;;11.23;3.33;;;;;;;;;;10265076;28;20403;-58
2023/10/24 21:37:12;;;;;;;12.40;3.30;;;;;;;;;;10265006;28;20427;-58
2023/10/24 21:42:13;;;;;;;9.25;3.97;;;;;;;;;;10261521;28;20035;-61
2023/10/24 21:47:16;;;;;;;6.75;3.40;;;;;;;;;;10278660;28;20030;-59
2023/10/24 21:52:16;;;;;;;4.45;3.35;;;;;;;;;;10288214;28;20120;-58
2023/10/24 21:57:17;;;;;;;7.80;3.88;;;;;;;;;;10288492;28;20031;-58
2023/10/24 22:02:18;;;;;;;7.32;3.00;;;;;;;;;;10285984;28;20046;-60
2023/10/24 22:07:18;;;;;;;6.32;3.22;;;;;;;;;;10285315;28;20034;-58
2023/10/24 22:12:19;;;;;;;6.45;3.50;;;;;;;;;;10287644;28;20035;-58
2023/10/24 22:17:19;;;;;;;9.27;3.20;;;;;;;;;;10288151;28;20034;-58
2023/10/24 22:22:40;;;;;;;5.93;3.13;;;;;;;;;;10285856;28;20031;-59
2023/10/24 22:27:41;;;;;;;6.32;3.45;;;;;;;;;;10164105;29;20096;-59
2023/10/24 22:32:41;;;;;;;5.95;3.33;;;;;;;;;;10163379;29;20107;-68
2023/10/24 22:37:44;;;;;;;7.78;2.97;;;;;;;;;;10163205;29;20028;-66
2023/10/24 22:42:45;;;;;;;5.38;3.50;;;;;;;;;;10159056;29;20228;-66
2023/10/24 22:47:45;;;;;;;7.95;3.45;;;;;;;;;;10160314;29;20453;-66
2023/10/24 22:52:46;;;;;;;4.93;3.65;;;;;;;;;;10164510;29;20404;-66
2023/10/24 22:57:46;;;;;;;8.20;3.45;;;;;;;;;;10164730;29;20127;-66
2023/10/24 23:02:47;;;;;;;5.47;3.75;;;;;;;;;;10199232;28;20087;-66
2023/10/24 23:07:48;;;;;;;4.30;3.53;;;;;;;;;;10288926;28;20498;-66
2023/10/24 23:12:48;;;;;;;8.45;3.88;;;;;;;;;;10279842;28;20030;-66
2023/10/24 23:17:49;;;;;;;9.80;4.30;;;;;;;;;;10288929;28;20097;-66
2023/10/24 23:22:51;;;;;;;6.18;3.58;;;;;;;;;;10286309;28;20495;-63
2023/10/24 23:27:51;;;;;;;7.78;3.63;;;;;;;;;;10287729;28;20093;-66
2023/10/24 23:32:52;;;;;;;8.70;3.88;;;;;;;;;;10283896;28;20100;-60
2023/10/24 23:37:52;;;;;;;7.70;3.88;;;;;;;;;;10259393;28;20031;-59
2023/10/24 23:42:53;;;;;;;7.80;4.03;;;;;;;;;;10258657;28;20031;-59
2023/10/24 23:47:54;;;;;;;5.00;3.92;;;;;;;;;;10275015;28;20026;-60
2023/10/24 23:52:54;;;;;;;9.77;3.92;;;;;;;;;;10281142;28;20065;-59
2023/10/24 23:57:55;;;;;;;5.65;3.63;;;;;;;;;;10284217;28;20027;-58
